Time;durP1;ratioP1;P1;durP2;ratioP2;P2;SDS_P1;SDS_P2;PMS_P1;PMS_P2;Temp;Humidity;BMP_temperature;BMP_pressure;BME280_temperature;BME280_humidity;BME280_pressure;Samples;Min_cycle;Max_cycle;Signal;HPM_P1;HPM_P2
2023/04/25 00:02:24;;;;;;;78.87;9.10;;;8.90;98.20;;;;;;5020208;28;20316;-85
2023/04/25 00:04:50;;;;;;;76.47;9.07;;;8.80;97.00;;;;;;5020021;28;20197;-85
2023/04/25 00:07:16;;;;;;;76.47;9.20;;;8.80;99.30;;;;;;5019315;28;20170;-85
2023/04/25 00:09:42;;;;;;;77.07;10.23;;;8.70;99.90;;;;;;5022705;28;20773;-85
2023/04/25 00:12:08;;;;;;;75.90;9.80;;;8.70;99.90;;;;;;5023639;28;20184;-85
2023/04/25 00:14:35;;;;;;;67.90;7.80;;;8.80;99.90;;;;;;5022885;28;20436;-85
2023/04/25 00:17:02;;;;;;;73.70;9.75;;;8.70;99.90;;;;;;5024467;28;20170;-85
2023/04/25 00:19:28;;;;;;;79.20;9.30;;;8.70;99.90;;;;;;5024201;28;20174;-85
2023/04/25 00:21:57;;;;;;;78.23;11.57;;;8.60;99.90;;;;;;5023064;28;20177;-85
2023/04/25 00:24:23;;;;;;;73.28;10.80;;;8.50;99.90;;;;;;5022262;28;20455;-85
2023/04/25 00:26:49;;;;;;;74.05;11.63;;;8.50;99.90;;;;;;5023781;28;20222;-85
2023/04/25 00:29:14;;;;;;;73.30;14.20;;;8.50;99.90;;;;;;5021842;28;20196;-85
2023/04/25 00:31:40;;;;;;;82.80;12.73;;;8.50;99.90;;;;;;5023025;28;20773;-85
2023/04/25 00:34:08;;;;;;;75.37;9.90;;;8.50;99.90;;;;;;5022987;28;20221;-85
2023/04/25 00:36:33;;;;;;;75.38;9.07;;;8.50;99.90;;;;;;5023781;28;20174;-85
2023/04/25 00:38:59;;;;;;;70.80;10.33;;;8.50;99.90;;;;;;5023418;28;20193;-85
2023/04/25 00:41:26;;;;;;;75.03;9.77;;;8.60;99.90;;;;;;5023197;28;20401;-85
2023/04/25 00:43:53;;;;;;;67.85;8.57;;;8.60;99.90;;;;;;5021294;28;20684;-85
2023/04/25 00:46:19;;;;;;;72.72;8.80;;;8.50;99.90;;;;;;5023482;28;20161;-85
2023/04/25 00:48:45;;;;;;;73.87;9.27;;;8.40;99.90;;;;;;5021983;28;20217;-85
2023/04/25 00:51:16;;;;;;;75.47;9.05;;;8.40;99.90;;;;;;5022188;28;20404;-85
2023/04/25 00:53:42;;;;;;;67.95;8.13;;;8.30;99.90;;;;;;5022276;28;20209;-85
2023/04/25 00:56:08;;;;;;;71.60;9.20;;;8.30;99.90;;;;;;5021965;28;20178;-85
2023/04/25 00:58:34;;;;;;;72.30;9.50;;;8.30;99.90;;;;;;5023854;28;20454;-85
2023/04/25 01:01:01;;;;;;;73.07;8.82;;;8.20;99.90;;;;;;5021939;28;20420;-85
2023/04/25 01:03:28;;;;;;;70.80;10.38;;;8.20;99.90;;;;;;5022224;28;20729;-85
2023/04/25 01:05:54;;;;;;;70.85;9.80;;;8.20;99.90;;;;;;5022431;28;20186;-85
2023/04/25 01:08:23;;;;;;;80.40;10.67;;;8.10;99.90;;;;;;5023053;28;20169;-85
2023/04/25 01:10:49;;;;;;;74.07;9.68;;;8.20;99.90;;;;;;5021364;28;20452;-85
2023/04/25 01:13:15;;;;;;;77.03;9.70;;;8.20;99.90;;;;;;5022962;28;20165;-85
2023/04/25 01:15:40;;;;;;;72.60;11.47;;;8.10;99.90;;;;;;5023319;28;20413;-85
2023/04/25 01:18:06;;;;;;;74.20;11.80;;;8.10;99.90;;;;;;5022585;28;20166;-85
2023/04/25 01:20:33;;;;;;;77.27;10.70;;;8.00;99.90;;;;;;5021595;28;20622;-85
2023/04/25 01:22:59;;;;;;;73.72;10.65;;;8.00;99.90;;;;;;5021792;28;20173;-85
2023/04/25 01:25:25;;;;;;;72.32;10.77;;;8.00;99.90;;;;;;5022575;28;20190;-85
2023/04/25 01:27:51;;;;;;;76.45;11.40;;;8.00;99.90;;;;;;5023218;28;20158;-85
2023/04/25 01:30:17;;;;;;;76.15;11.98;;;8.00;99.90;;;;;;5021374;28;20169;-85
2023/04/25 01:32:43;;;;;;;76.60;11.67;;;8.00;99.90;;;;;;5023127;28;20166;-85
2023/04/25 01:35:11;;;;;;;78.30;12.80;;;8.00;99.90;;;;;;5021296;28;20437;-85
2023/04/25 01:37:44;;;;;;;83.00;12.38;;;7.90;99.90;;;;;;5021212;28;20166;-85
2023/04/25 01:40:11;;;;;;;75.22;13.18;;;7.90;99.90;;;;;;5022308;28;20212;-85
2023/04/25 01:42:41;;;;;;;76.18;13.90;;;7.80;99.90;;;;;;5021274;28;20170;-85
2023/04/25 01:45:08;;;;;;;77.90;13.38;;;7.80;99.90;;;;;;5021311;28;20569;-85
2023/04/25 01:47:36;;;;;;;76.97;14.68;;;7.80;99.90;;;;;;5022820;28;20193;-85
2023/04/25 01:50:03;;;;;;;78.53;15.27;;;7.70;99.90;;;;;;5020986;28;20257;-84
2023/04/25 01:52:29;;;;;;;74.15;13.63;;;7.80;99.90;;;;;;5022762;28;20185;-85
2023/04/25 01:54:57;;;;;;;85.50;15.13;;;7.80;99.90;;;;;;5022200;28;20672;-84
2023/04/25 01:57:23;;;;;;;75.15;12.88;;;7.80;99.90;;;;;;5022292;28;20428;-85
2023/04/25 01:59:49;;;;;;;84.10;14.63;;;7.70;99.90;;;;;;5020938;28;20173;-85
2023/04/25 02:02:15;;;;;;;76.32;12.20;;;7.70;99.90;;;;;;5021735;28;20454;-85
2023/04/25 02:04:41;;;;;;;76.87;14.40;;;7.70;99.90;;;;;;5021374;28;20546;-85
2023/04/25 02:07:07;;;;;;;77.70;15.93;;;7.60;99.90;;;;;;5020781;28;20170;-85
2023/04/25 02:09:32;;;;;;;74.63;15.73;;;7.60;99.90;;;;;;5020690;28;20209;-84
2023/04/25 02:11:58;;;;;;;72.27;14.90;;;7.50;99.90;;;;;;5021453;28;20276;-85
2023/04/25 02:14:24;;;;;;;75.20;17.45;;;7.50;99.90;;;;;;5021760;28;20196;-84
2023/04/25 02:16:51;;;;;;;84.20;15.47;;;7.50;99.90;;;;;;5018776;28;20170;-84
2023/04/25 02:19:16;;;;;;;80.30;19.70;;;7.50;99.90;;;;;;5021404;28;20197;-85
2023/04/25 02:21:42;;;;;;;76.20;15.90;;;7.50;99.90;;;;;;5020820;28;20527;-85
2023/04/25 02:24:08;;;;;;;73.90;16.13;;;7.50;99.90;;;;;;5020692;28;20448;-84
2023/04/25 02:26:34;;;;;;;79.07;18.63;;;7.60;99.90;;;;;;5022543;28;20162;-85
2023/04/25 02:29:01;;;;;;;88.90;17.17;;;7.60;99.90;;;;;;5020567;28;20211;-85
2023/04/25 02:31:26;;;;;;;76.25;13.95;;;7.60;99.90;;;;;;5021020;28;20469;-85
2023/04/25 02:33:52;;;;;;;80.67;12.00;;;7.70;99.90;;;;;;5021709;28;20268;-85
2023/04/25 02:36:18;;;;;;;81.10;14.30;;;7.70;99.90;;;;;;5021809;28;20236;-85
2023/04/25 02:38:43;;;;;;;74.77;14.57;;;7.60;99.90;;;;;;5020824;28;20177;-85
2023/04/25 02:41:09;;;;;;;75.37;13.47;;;7.60;99.90;;;;;;5021887;28;20184;-85
2023/04/25 02:43:35;;;;;;;72.83;11.50;;;7.70;99.90;;;;;;5020549;28;20189;-85
2023/04/25 02:46:00;;;;;;;74.20;11.23;;;7.70;99.90;;;;;;5020887;28;20202;-84
2023/04/25 02:48:26;;;;;;;77.67;14.10;;;7.70;99.90;;;;;;5020281;28;20220;-84
2023/04/25 02:50:52;;;;;;;72.47;10.90;;;7.70;99.90;;;;;;5021902;28;20244;-85
2023/04/25 02:53:18;;;;;;;70.53;12.43;;;7.80;99.90;;;;;;5021090;28;20409;-85
2023/04/25 02:55:44;;;;;;;76.17;13.30;;;7.70;99.90;;;;;;5020441;28;20405;-85
2023/04/25 02:58:10;;;;;;;75.77;13.90;;;7.60;99.90;;;;;;5020990;28;20413;-85
2023/04/25 03:00:35;;;;;;;72.93;14.40;;;7.60;99.90;;;;;;5019296;28;20178;-85
2023/04/25 03:03:01;;;;;;;73.73;14.97;;;7.60;99.90;;;;;;5019315;28;20189;-85
2023/04/25 03:05:27;;;;;;;77.67;16.17;;;7.50;99.90;;;;;;5019837;28;20448;-85
2023/04/25 03:07:52;;;;;;;77.30;14.53;;;7.50;99.90;;;;;;5020568;28;20189;-85
2023/04/25 03:10:21;;;;;;;87.03;14.20;;;7.50;99.90;;;;;;5019693;28;20188;-85
2023/04/25 03:12:47;;;;;;;70.75;13.90;;;7.60;99.90;;;;;;5021197;28;20169;-85
2023/04/25 03:15:13;;;;;;;74.20;11.73;;;7.60;99.90;;;;;;5019525;28;20193;-85
2023/04/25 03:17:38;;;;;;;72.22;13.55;;;7.70;99.90;;;;;;5020256;28;20166;-85
2023/04/25 03:20:05;;;;;;;77.93;12.83;;;7.60;99.90;;;;;;5020401;28;20246;-85
2023/04/25 03:22:31;;;;;;;71.88;12.27;;;7.60;99.90;;;;;;5020322;28;20166;-85
2023/04/25 03:24:56;;;;;;;70.87;13.57;;;7.60;99.90;;;;;;5020580;28;20281;-85
2023/04/25 03:27:22;;;;;;;75.03;11.27;;;7.60;99.90;;;;;;5003906;28;20474;-85
2023/04/25 03:29:48;;;;;;;78.70;13.97;;;7.60;99.90;;;;;;5018711;28;20230;-85
2023/04/25 03:32:14;;;;;;;77.90;13.70;;;7.60;99.90;;;;;;5020359;28;20185;-85
2023/04/25 03:34:39;;;;;;;71.47;11.40;;;7.60;99.90;;;;;;5018935;28;20256;-85
2023/04/25 03:37:05;;;;;;;74.33;12.03;;;7.60;99.90;;;;;;5019508;28;20177;-85
2023/04/25 03:39:31;;;;;;;73.20;11.67;;;7.70;99.90;;;;;;5019107;28;20412;-85
2023/04/25 03:41:56;;;;;;;71.60;10.67;;;7.80;99.90;;;;;;5018588;28;20174;-85
2023/04/25 03:44:24;;;;;;;76.70;11.57;;;7.80;99.90;;;;;;5020917;28;20288;-85
2023/04/25 03:46:49;;;;;;;76.68;11.52;;;7.80;99.90;;;;;;5024448;28;20158;-85
2023/04/25 03:49:16;;;;;;;69.70;8.93;;;7.80;99.90;;;;;;5024309;28;20634;-85
2023/04/25 03:51:42;;;;;;;72.50;10.43;;;7.80;99.90;;;;;;5023421;28;20170;-85
2023/04/25 03:54:07;;;;;;;74.93;10.07;;;7.80;99.90;;;;;;5023846;28;20190;-85
2023/04/25 03:56:33;;;;;;;77.97;12.60;;;7.70;99.90;;;;;;5022150;28;20244;-85
2023/04/25 03:58:59;;;;;;;76.10;12.10;;;7.60;99.90;;;;;;5022384;28;20162;-85
2023/04/25 04:01:25;;;;;;;72.60;9.20;;;7.70;99.90;;;;;;5022508;28;20463;-85
2023/04/25 04:03:50;;;;;;;72.27;11.27;;;7.70;99.90;;;;;;5023346;28;20198;-85
2023/04/25 04:06:17;;;;;;;78.77;12.63;;;7.70;99.90;;;;;;5023609;28;20166;-85
2023/04/25 04:08:42;;;;;;;75.65;10.43;;;7.70;99.90;;;;;;5021278;28;20622;-85
2023/04/25 04:11:08;;;;;;;79.27;12.47;;;7.70;99.90;;;;;;5021710;28;20188;-85
2023/04/25 04:13:34;;;;;;;73.10;11.47;;;7.80;99.90;;;;;;5024554;28;20188;-85
2023/04/25 04:16:00;;;;;;;73.07;11.05;;;7.70;99.90;;;;;;5025439;28;20166;-85
2023/04/25 04:18:26;;;;;;;77.70;10.83;;;7.80;99.90;;;;;;5023665;28;20177;-85
2023/04/25 04:20:51;;;;;;;79.77;12.20;;;7.80;99.90;;;;;;5024064;28;20652;-84
2023/04/25 04:23:17;;;;;;;75.17;11.80;;;7.70;99.90;;;;;;5023906;28;20220;-85
2023/04/25 04:25:43;;;;;;;80.30;12.00;;;7.70;99.90;;;;;;5023933;28;20194;-85
2023/04/25 04:28:10;;;;;;;77.93;11.50;;;7.70;99.90;;;;;;5022708;28;20625;-85
2023/04/25 04:30:37;;;;;;;72.45;10.98;;;7.70;99.90;;;;;;5023814;28;20442;-85
2023/04/25 04:33:03;;;;;;;77.18;12.30;;;7.70;99.90;;;;;;5023817;28;20158;-85
2023/04/25 04:35:29;;;;;;;78.32;12.45;;;7.70;99.90;;;;;;5023706;28;20162;-85
2023/04/25 04:37:55;;;;;;;71.70;12.80;;;7.80;99.90;;;;;;5023444;28;20188;-85
2023/04/25 04:40:21;;;;;;;76.68;13.23;;;7.80;99.90;;;;;;5022862;28;20543;-85
2023/04/25 04:42:47;;;;;;;78.22;12.23;;;7.70;99.90;;;;;;5022238;28;20181;-85
2023/04/25 04:45:14;;;;;;;77.85;12.50;;;7.70;99.90;;;;;;5021726;28;20280;-85
2023/04/25 04:47:40;;;;;;;85.45;12.82;;;7.70;99.90;;;;;;5022335;28;20240;-85
2023/04/25 04:50:09;;;;;;;77.50;11.38;;;7.70;99.90;;;;;;5023658;28;20637;-85
2023/04/25 04:52:35;;;;;;;72.28;11.70;;;7.80;99.90;;;;;;5022309;28;20176;-85
2023/04/25 04:55:03;;;;;;;73.70;11.32;;;7.80;99.90;;;;;;5022663;28;20190;-84
2023/04/25 04:57:28;;;;;;;76.03;11.68;;;7.80;99.90;;;;;;5023372;28;20174;-85
2023/04/25 04:59:54;;;;;;;79.78;12.45;;;7.80;99.90;;;;;;5022640;28;20162;-85
2023/04/25 05:02:20;;;;;;;73.20;12.03;;;7.80;99.90;;;;;;5021886;28;20177;-85
2023/04/25 05:04:46;;;;;;;80.30;12.93;;;7.90;99.90;;;;;;5022767;28;20472;-85
2023/04/25 05:07:12;;;;;;;73.67;12.10;;;8.00;99.90;;;;;;5021853;28;20512;-85
2023/04/25 05:09:38;;;;;;;87.18;11.77;;;7.90;99.90;;;;;;5022180;28;20405;-85
2023/04/25 05:12:04;;;;;;;76.53;11.20;;;8.00;99.90;;;;;;5023021;28;20178;-85
2023/04/25 05:14:31;;;;;;;75.83;12.20;;;8.00;99.90;;;;;;5021210;28;20196;-85
2023/04/25 05:16:57;;;;;;;91.32;10.65;;;8.00;99.90;;;;;;5023005;28;20440;-85
2023/04/25 05:19:25;;;;;;;83.20;13.50;;;8.00;99.90;;;;;;5023750;28;20170;-85
2023/04/25 05:21:51;;;;;;;81.22;11.90;;;8.00;99.90;;;;;;5022969;28;20458;-85
2023/04/25 05:24:16;;;;;;;75.57;14.10;;;8.00;99.90;;;;;;5020870;28;20198;-84
2023/04/25 05:26:42;;;;;;;77.40;11.83;;;8.10;99.90;;;;;;5020961;28;20178;-85
2023/04/25 05:29:08;;;;;;;78.47;11.30;;;8.10;99.90;;;;;;5022138;28;20253;-85
2023/04/25 05:31:34;;;;;;;77.17;11.27;;;8.10;99.90;;;;;;5023100;28;20507;-85
2023/04/25 05:33:59;;;;;;;72.70;11.47;;;8.20;99.90;;;;;;5021210;28;20197;-85
2023/04/25 05:36:25;;;;;;;88.00;11.97;;;8.20;99.90;;;;;;5021814;28;20397;-86
2023/04/25 05:38:51;;;;;;;72.47;9.93;;;8.30;99.90;;;;;;5021440;28;20618;-85
2023/04/25 05:41:17;;;;;;;73.13;9.20;;;8.30;99.90;;;;;;5021455;28;20158;-85
2023/04/25 05:43:46;;;;;;;80.47;11.10;;;8.40;99.90;;;;;;5019637;28;20506;-85
2023/04/25 05:46:12;;;;;;;77.38;11.80;;;8.30;99.90;;;;;;5020125;28;20284;-86
2023/04/25 05:48:39;;;;;;;84.05;13.88;;;8.20;99.90;;;;;;5020073;28;20169;-85
2023/04/25 05:51:05;;;;;;;74.10;10.75;;;8.30;99.90;;;;;;5018622;28;20177;-86
2023/04/25 05:53:31;;;;;;;81.27;10.23;;;8.20;99.90;;;;;;5018831;28;20186;-85
2023/04/25 05:55:56;;;;;;;74.73;9.67;;;8.30;99.90;;;;;;5018648;28;20198;-85
2023/04/25 05:58:22;;;;;;;77.80;9.40;;;8.30;99.90;;;;;;5020417;28;20162;-85
2023/04/25 06:00:48;;;;;;;84.68;8.68;;;8.30;99.90;;;;;;5020407;28;20166;-85
2023/04/25 06:03:14;;;;;;;83.87;9.80;;;8.30;99.90;;;;;;5019793;28;20695;-86
2023/04/25 06:05:42;;;;;;;77.13;12.25;;;8.40;99.90;;;;;;5019717;28;20440;-85
2023/04/25 06:08:08;;;;;;;78.45;10.40;;;8.40;99.90;;;;;;5018412;28;20173;-84
2023/04/25 06:10:34;;;;;;;77.65;9.88;;;8.50;99.90;;;;;;5019630;28;20642;-85
2023/04/25 06:13:00;;;;;;;74.83;9.03;;;8.50;99.90;;;;;;5019072;28;20166;-85
2023/04/25 06:15:26;;;;;;;77.03;7.13;;;8.60;99.90;;;;;;5020250;28;20259;-85
2023/04/25 06:17:51;;;;;;;72.57;7.30;;;8.60;99.90;;;;;;5020182;28;20633;-85
2023/04/25 06:20:17;;;;;;;73.50;7.40;;;8.70;99.90;;;;;;5019457;28;20224;-84
2023/04/25 06:22:43;;;;;;;74.95;6.82;;;8.80;97.50;;;;;;5018803;28;20545;-85
2023/04/25 06:25:09;;;;;;;72.37;7.50;;;8.70;93.00;;;;;;5018086;28;20205;-84
2023/04/25 06:27:34;;;;;;;71.80;8.30;;;8.70;95.30;;;;;;5020085;28;20162;-85
2023/04/25 06:30:00;;;;;;;74.20;7.80;;;8.60;96.60;;;;;;5017923;28;20264;-85
2023/04/25 06:32:28;;;;;;;82.00;7.57;;;8.70;97.10;;;;;;5018604;28;20213;-84
2023/04/25 06:34:54;;;;;;;73.25;7.95;;;8.80;96.60;;;;;;5018591;28;20664;-85
2023/04/25 06:37:19;;;;;;;80.17;7.83;;;8.80;94.10;;;;;;5019948;28;20166;-85
2023/04/25 06:39:45;;;;;;;75.10;7.30;;;8.80;90.90;;;;;;5017506;28;20185;-84
2023/04/25 06:42:11;;;;;;;76.67;9.33;;;8.80;91.90;;;;;;5018576;28;20307;-85
2023/04/25 06:44:36;;;;;;;75.73;7.40;;;8.90;92.70;;;;;;5017840;28;20202;-84
2023/04/25 06:47:05;;;;;;;78.37;5.97;;;9.00;88.20;;;;;;5019641;28;20513;-84
2023/04/25 06:49:31;;;;;;;71.97;6.10;;;9.00;63.40;;;;;;5017825;28;20173;-84
2023/04/25 06:51:59;;;;;;;75.50;7.73;;;8.90;69.50;;;;;;5016955;28;20220;-84
2023/04/25 06:54:26;;;;;;;76.75;6.60;;;8.80;73.50;;;;;;5018267;28;20284;-84
2023/04/25 06:56:53;;;;;;;83.13;7.25;;;8.80;76.10;;;;;;5017655;28;20166;-85
2023/04/25 06:59:19;;;;;;;71.28;6.07;;;8.90;70.00;;;;;;5017406;28;20173;-85
2023/04/25 07:01:52;;;;;;;78.97;7.63;;;8.80;63.40;;;;;;5018676;28;20168;-84
2023/04/25 07:04:18;;;;;;;72.55;7.55;;;8.80;69.70;;;;;;5017662;28;20608;-83
2023/04/25 07:06:48;;;;;;;76.10;7.73;;;9.00;75.90;;;;;;5018223;28;20157;-84
2023/04/25 07:09:13;;;;;;;77.63;6.63;;;9.10;72.40;;;;;;5001289;28;20196;-83
2023/04/25 07:11:39;;;;;;;81.10;7.90;;;9.30;65.80;;;;;;5017515;28;20177;-84
2023/04/25 07:14:08;;;;;;;80.10;6.90;;;9.30;59.70;;;;;;5016461;28;20182;-84
2023/04/25 07:16:34;;;;;;;85.85;6.82;;;9.20;47.10;;;;;;5018000;28;20521;-85
2023/04/25 07:19:00;;;;;;;69.40;6.35;;;9.20;57.60;;;;;;5018729;28;20161;-84
2023/04/25 07:21:26;;;;;;;75.43;6.27;;;9.30;51.30;;;;;;5017439;28;20165;-83
2023/04/25 07:23:51;;;;;;;77.43;6.40;;;9.50;50.30;;;;;;5016810;28;20186;-84
2023/04/25 07:26:20;;;;;;;77.13;5.57;;;9.40;31.60;;;;;;5017081;28;20193;-84
2023/04/25 07:28:49;;;;;;;72.70;8.00;;;9.50;41.30;;;;;;5017108;28;20170;-84
2023/04/25 07:31:17;;;;;;;69.85;5.60;;;9.50;23.70;;;;;;5017474;28;20158;-84
2023/04/25 07:33:46;;;;;;;74.15;6.00;;;9.30;11.70;;;;;;5017527;28;20192;-84
2023/04/25 07:36:12;;;;;;;72.43;6.20;;;9.20;6.90;;;;;;5016624;28;20166;-83
2023/04/25 07:38:39;;;;;;;71.82;7.35;;;9.20;17.10;;;;;;5016580;28;20170;-83
2023/04/25 07:41:05;;;;;;;68.80;7.50;;;9.10;21.90;;;;;;5020247;28;20177;-84
2023/04/25 07:43:31;;;;;;;76.47;8.30;;;9.10;10.50;;;;;;5020083;28;20696;-84
2023/04/25 07:45:56;;;;;;;71.47;8.20;;;9.10;19.80;;;;;;5019489;28;20201;-84
2023/04/25 07:48:22;;;;;;;72.23;7.50;;;9.30;23.80;;;;;;5020518;28;20158;-83
2023/04/25 07:50:48;;;;;;;69.32;7.82;;;9.40;11.10;;;;;;5020955;28;20241;-84
2023/04/25 07:53:14;;;;;;;75.37;8.20;;;9.40;19.20;;;;;;5019261;28;20196;-84
2023/04/25 07:55:40;;;;;;;79.30;9.10;;;9.40;25.30;;;;;;5019473;28;20174;-84
2023/04/25 07:58:11;;;;;;;71.67;7.60;;;9.50;28.00;;;;;;5020998;28;20535;-84
2023/04/25 08:00:37;;;;;;;75.35;8.65;;;9.40;27.20;;;;;;5018809;28;20208;-85
2023/04/25 08:03:03;;;;;;;79.22;8.05;;;9.50;19.10;;;;;;5019987;28;20162;-84
2023/04/25 08:05:29;;;;;;;69.27;6.30;;;9.70;21.50;;;;;;5019278;28;20264;-84
2023/04/25 08:07:56;;;;;;;76.13;6.10;;;9.70;13.70;;;;;;5020303;28;20241;-84
2023/04/25 08:10:22;;;;;;;71.75;5.70;;;9.80;7.50;;;;;;5018523;28;20206;-84
2023/04/25 08:12:49;;;;;;;70.25;5.03;;;9.80;7.70;;;;;;5018927;28;20158;-85
2023/04/25 08:15:14;;;;;;;68.70;5.00;;;9.60;1.00;;;;;;5017799;28;20182;-84
2023/04/25 08:17:40;;;;;;;75.30;5.63;;;9.60;1.00;;;;;;5018350;28;20170;-85
2023/04/25 08:20:07;;;;;;;70.75;5.18;;;9.70;8.50;;;;;;5018987;28;20401;-85
2023/04/25 08:22:33;;;;;;;68.60;5.40;;;9.80;7.40;;;;;;5018449;28;20177;-84
2023/04/25 08:24:59;;;;;;;72.57;6.13;;;10.00;1.00;;;;;;5018706;28;20197;-85
2023/04/25 08:27:25;;;;;;;69.38;4.60;;;10.10;3.30;;;;;;5017993;28;20173;-85
2023/04/25 08:29:51;;;;;;;77.90;4.90;;;9.90;1.00;;;;;;5019819;28;20609;-85
2023/04/25 08:32:18;;;;;;;67.47;5.30;;;9.90;1.00;;;;;;5021864;28;20200;-84
2023/04/25 08:34:43;;;;;;;86.15;5.32;;;10.00;1.00;;;;;;5022171;28;20186;-85
2023/04/25 08:37:12;;;;;;;76.20;5.13;;;10.30;1.00;;;;;;5020867;28;20169;-85
2023/04/25 08:39:38;;;;;;;67.68;4.68;;;10.30;1.00;;;;;;5023232;28;20161;-85
2023/04/25 08:42:07;;;;;;;72.15;5.43;;;10.30;1.00;;;;;;5021147;28;20181;-85
2023/04/25 08:44:36;;;;;;;73.57;4.90;;;10.50;1.00;;;;;;5021185;28;20288;-85
2023/04/25 08:47:08;;;;;;;68.20;4.90;;;10.60;1.00;;;;;;5021781;28;20170;-85
2023/04/25 08:49:34;;;;;;;72.15;5.32;;;10.70;1.00;;;;;;5023145;28;20162;-85
2023/04/25 08:52:03;;;;;;;72.13;5.53;;;10.80;1.00;;;;;;5021469;28;20173;-85
2023/04/25 08:54:31;;;;;;;68.88;4.63;;;10.90;1.00;;;;;;5021793;28;20186;-85
2023/04/25 08:57:00;;;;;;;70.88;5.57;;;11.00;1.00;;;;;;5021958;28;20225;-84
2023/04/25 08:59:26;;;;;;;75.15;5.65;;;10.90;1.00;;;;;;5022230;28;20698;-85
2023/04/25 09:01:52;;;;;;;70.45;5.72;;;10.70;1.00;;;;;;5021718;28;20174;-85
2023/04/25 09:04:21;;;;;;;71.00;5.23;;;10.70;1.00;;;;;;5021376;28;20194;-85
2023/04/25 09:06:48;;;;;;;73.10;5.43;;;10.70;1.00;;;;;;5022781;28;20988;-85
2023/04/25 09:09:14;;;;;;;72.57;4.88;;;10.70;1.00;;;;;;5022762;28;20162;-85
2023/04/25 09:11:40;;;;;;;70.47;4.30;;;10.70;1.00;;;;;;5022745;28;20181;-85
2023/04/25 09:14:22;;;;;;;69.18;4.30;;;10.70;1.00;;;;;;5021464;28;20190;-84
2023/04/25 09:17:00;;;;;;;68.00;4.75;;;10.70;1.00;;;;;;5021249;28;20214;-84
2023/04/25 09:19:31;;;;;;;77.65;4.80;;;10.60;1.00;;;;;;5021257;28;20641;-84
2023/04/25 09:21:59;;;;;;;67.15;4.05;;;10.30;1.00;;;;;;5019903;28;20236;-84
2023/04/25 09:24:40;;;;;;;68.93;4.50;;;10.00;1.00;;;;;;5020913;28;20562;-84
2023/04/25 09:27:22;;;;;;;70.55;4.85;;;10.00;1.00;;;;;;5021271;28;20169;-84
2023/04/25 09:29:55;;;;;;;72.60;4.95;;;10.10;1.00;;;;;;5021768;28;20143;-85
2023/04/25 09:32:23;;;;;;;70.90;5.05;;;10.20;1.00;;;;;;5020608;28;20162;-85
2023/04/25 09:34:55;;;;;;;68.10;4.63;;;10.00;1.00;;;;;;5019208;28;20194;-84
2023/04/25 09:37:28;;;;;;;70.18;5.60;;;10.00;1.00;;;;;;5020534;28;20158;-83
2023/04/25 09:40:00;;;;;;;71.40;4.80;;;10.10;1.00;;;;;;5019104;28;20173;-84
2023/04/25 09:42:28;;;;;;;69.40;5.00;;;10.10;1.00;;;;;;5019226;28;20723;-85
2023/04/25 09:44:56;;;;;;;71.43;5.32;;;10.10;1.00;;;;;;5019945;28;20225;-84
2023/04/25 09:47:26;;;;;;;68.95;4.80;;;10.30;1.00;;;;;;5019297;28;20523;-85
2023/04/25 09:49:53;;;;;;;72.40;5.13;;;10.30;1.00;;;;;;5019691;28;20244;-84
2023/04/25 09:52:21;;;;;;;72.03;4.45;;;10.40;1.00;;;;;;5022579;28;20226;-85
2023/04/25 09:54:48;;;;;;;71.18;5.60;;;10.40;1.00;;;;;;5020612;28;20201;-84
2023/04/25 09:57:22;;;;;;;71.82;4.72;;;10.50;1.00;;;;;;5021846;28;20166;-85
2023/04/25 09:59:55;;;;;;;69.35;4.50;;;10.50;1.00;;;;;;5020380;28;20641;-84
2023/04/25 10:02:23;;;;;;;72.90;4.90;;;10.60;1.00;;;;;;5020780;28;20162;-84
2023/04/25 10:04:52;;;;;;;68.57;5.35;;;10.80;1.00;;;;;;5021106;28;20197;-84
2023/04/25 10:07:21;;;;;;;68.43;6.05;;;10.90;1.00;;;;;;5020809;28;20586;-83
2023/04/25 10:09:50;;;;;;;70.43;5.43;;;10.90;1.00;;;;;;5021492;28;20170;-85
2023/04/25 10:12:16;;;;;;;72.50;6.07;;;10.80;1.00;;;;;;5021350;28;20170;-84
2023/04/25 10:14:43;;;;;;;71.80;5.72;;;10.70;1.00;;;;;;5020413;28;20186;-84
2023/04/25 10:17:11;;;;;;;65.45;4.57;;;10.70;1.00;;;;;;5019849;28;20698;-85
2023/04/25 10:19:37;;;;;;;70.30;5.15;;;10.50;1.00;;;;;;5020470;28;20170;-85
2023/04/25 10:22:32;;;;;;;72.63;5.25;;;10.40;1.00;;;;;;5021465;28;20170;-85
2023/04/25 10:25:03;;;;;;;75.40;5.20;;;10.40;1.00;;;;;;5021543;28;20561;-85
2023/04/25 10:27:30;;;;;;;75.35;5.32;;;10.30;1.00;;;;;;5021570;28;20169;-85
2023/04/25 10:30:12;;;;;;;71.63;5.80;;;10.20;1.00;;;;;;5021493;28;20166;-85
2023/04/25 10:32:38;;;;;;;68.05;4.13;;;10.20;1.00;;;;;;5021768;28;20153;-85
2023/04/25 10:35:27;;;;;;;70.13;4.80;;;10.20;1.00;;;;;;5021342;28;20190;-85
2023/04/25 10:38:14;;;;;;;72.55;6.28;;;10.20;1.00;;;;;;5021163;28;20476;-85
2023/04/25 10:40:40;;;;;;;74.95;5.43;;;10.30;1.00;;;;;;5021365;28;20162;-85
2023/04/25 10:43:27;;;;;;;69.97;6.10;;;10.40;1.00;;;;;;5021165;28;20695;-85
2023/04/25 10:45:53;;;;;;;70.22;4.75;;;10.60;1.00;;;;;;5021853;28;20498;-84
2023/04/25 10:48:30;;;;;;;71.60;4.57;;;10.60;1.00;;;;;;5024742;28;20165;-84
2023/04/25 10:51:18;;;;;;;75.60;5.78;;;10.50;1.00;;;;;;5023039;28;20396;-84
2023/04/25 10:53:56;;;;;;;68.30;5.00;;;11.00;1.00;;;;;;5021182;28;20228;-84
2023/04/25 10:56:25;;;;;;;71.53;5.60;;;11.30;1.00;;;;;;5020591;28;20166;-85
2023/04/25 10:58:51;;;;;;;69.70;6.15;;;11.70;1.00;;;;;;5019731;28;20570;-84
2023/04/25 11:01:24;;;;;;;69.27;5.47;;;11.50;1.00;;;;;;5019556;28;20233;-84
2023/04/25 11:03:57;;;;;;;74.40;5.70;;;11.30;1.00;;;;;;5021334;28;20220;-84
2023/04/25 11:06:28;;;;;;;69.32;5.45;;;11.20;1.00;;;;;;5020402;28;20194;-84
2023/04/25 11:08:54;;;;;;;68.43;4.90;;;11.10;1.00;;;;;;5020078;28;20155;-84
2023/04/25 11:11:20;;;;;;;70.13;4.97;;;10.80;1.00;;;;;;5022220;28;20180;-84
2023/04/25 11:13:50;;;;;;;66.63;4.80;;;10.50;1.00;;;;;;5020459;28;20940;-83
2023/04/25 11:16:16;;;;;;;65.57;4.80;;;10.30;1.00;;;;;;5020153;28;20174;-84
2023/04/25 11:18:43;;;;;;;66.00;4.22;;;10.00;1.00;;;;;;5020185;28;20252;-84
2023/04/25 11:21:09;;;;;;;68.63;3.80;;;9.80;1.00;;;;;;5021362;28;20174;-84
2023/04/25 11:23:36;;;;;;;68.38;5.05;;;9.70;1.00;;;;;;5021137;28;20190;-84
2023/04/25 11:26:03;;;;;;;66.90;5.03;;;9.70;1.00;;;;;;5019786;28;20665;-84
2023/04/25 11:28:29;;;;;;;68.22;4.60;;;9.80;1.00;;;;;;5020062;28;20234;-84
2023/04/25 11:30:57;;;;;;;68.00;4.60;;;9.80;1.00;;;;;;5021465;28;20177;-85
2023/04/25 11:33:25;;;;;;;68.22;4.65;;;10.00;1.00;;;;;;5020529;28;20190;-83
2023/04/25 11:35:57;;;;;;;68.15;5.55;;;10.10;1.00;;;;;;5019715;28;20612;-84
2023/04/25 11:38:25;;;;;;;69.93;5.18;;;10.30;1.00;;;;;;5019763;28;20169;-84
2023/04/25 11:40:55;;;;;;;66.97;4.95;;;10.60;1.00;;;;;;5019737;28;20178;-84
2023/04/25 11:43:21;;;;;;;68.55;4.88;;;10.80;1.00;;;;;;5021153;28;20223;-84
2023/04/25 11:45:51;;;;;;;66.72;4.03;;;11.00;1.00;;;;;;5018880;28;20193;-84
2023/04/25 11:48:17;;;;;;;67.97;4.95;;;11.50;1.00;;;;;;5018119;28;20162;-83
2023/04/25 11:50:43;;;;;;;73.07;5.28;;;11.80;1.00;;;;;;5018805;28;20172;-84
2023/04/25 11:53:10;;;;;;;68.87;5.13;;;11.80;1.00;;;;;;5020432;28;20186;-84
2023/04/25 11:55:36;;;;;;;69.47;5.25;;;11.70;1.00;;;;;;5020052;28;20754;-84
2023/04/25 11:58:03;;;;;;;69.55;5.30;;;11.80;1.00;;;;;;5018554;28;20169;-83
2023/04/25 12:00:29;;;;;;;67.45;3.75;;;11.80;1.00;;;;;;5016605;28;20232;-84
2023/04/25 12:03:02;;;;;;;67.80;4.60;;;11.70;1.00;;;;;;5018017;28;20580;-84
2023/04/25 12:05:30;;;;;;;70.85;3.78;;;11.80;1.00;;;;;;5017643;28;20204;-83
2023/04/25 12:07:56;;;;;;;65.90;3.50;;;11.90;1.00;;;;;;5021873;28;20169;-83
2023/04/25 12:10:24;;;;;;;71.38;4.38;;;12.00;1.00;;;;;;5021137;28;20177;-83
2023/04/25 12:12:49;;;;;;;67.05;3.85;;;12.20;1.00;;;;;;5021135;28;20240;-84
2023/04/25 12:15:26;;;;;;;70.97;3.90;;;12.60;1.00;;;;;;5021112;28;20669;-83
2023/04/25 12:17:53;;;;;;;68.15;4.03;;;12.90;1.00;;;;;;5020682;28;20170;-83
2023/04/25 12:20:23;;;;;;;71.60;4.65;;;13.00;1.00;;;;;;5019234;28;20177;-84
2023/04/25 12:22:50;;;;;;;66.13;4.22;;;13.00;1.00;;;;;;5020840;28;20181;-85
2023/04/25 12:25:44;;;;;;;69.15;4.28;;;13.10;1.00;;;;;;5019654;28;20545;-83
2023/04/25 12:28:24;;;;;;;65.65;3.90;;;12.90;1.00;;;;;;5019375;28;20184;-84
2023/04/25 12:31:03;;;;;;;71.57;4.55;;;13.10;1.00;;;;;;5018850;28;20525;-84
2023/04/25 12:33:34;;;;;;;71.07;4.10;;;12.90;1.00;;;;;;5020986;28;20178;-83
2023/04/25 12:36:03;;;;;;;68.95;3.97;;;12.90;1.00;;;;;;5019929;28;20184;-82
2023/04/25 12:38:31;;;;;;;70.47;4.00;;;12.90;1.00;;;;;;5019082;28;20181;-84
2023/04/25 12:40:58;;;;;;;66.35;4.10;;;13.00;1.00;;;;;;5019480;28;20197;-84
2023/04/25 12:43:24;;;;;;;70.88;4.05;;;12.70;1.00;;;;;;5021301;28;20194;-83
2023/04/25 12:45:51;;;;;;;65.65;3.80;;;12.70;1.00;;;;;;5021527;28;20250;-83